createdAt,value
2022-09-14T00:00:39.811Z,15.85
2022-09-14T00:01:39.823Z,15.86
2022-09-14T00:02:39.886Z,15.86
2022-09-14T00:03:39.832Z,15.86
2022-09-14T00:04:39.743Z,15.89
2022-09-14T00:05:39.736Z,15.93
2022-09-14T00:06:39.719Z,15.93
2022-09-14T00:07:39.697Z,15.95
2022-09-14T00:08:39.699Z,15.95
2022-09-14T00:09:39.672Z,15.93
2022-09-14T00:10:39.671Z,15.93
2022-09-14T00:11:39.645Z,15.93
2022-09-14T00:12:39.634Z,15.95
2022-09-14T00:13:39.697Z,15.98
2022-09-14T00:14:39.609Z,15.96
2022-09-14T00:15:39.605Z,15.98
2022-09-14T00:16:39.660Z,16.03
2022-09-14T00:17:39.565Z,16.03
2022-09-14T00:18:39.565Z,16.07
2022-09-14T00:19:39.543Z,16.10
2022-09-14T00:20:39.544Z,16.10
2022-09-14T00:21:39.500Z,16.08
2022-09-14T00:22:39.501Z,16.06
2022-09-14T00:23:39.481Z,16.04
2022-09-14T00:24:39.472Z,16.06
2022-09-14T00:25:39.470Z,16.07
2022-09-14T00:26:39.453Z,16.07
2022-09-14T00:27:39.442Z,16.07
2022-09-14T00:28:39.521Z,16.08
2022-09-14T00:29:39.421Z,16.11
2022-09-14T00:30:39.429Z,16.16
2022-09-14T00:31:39.477Z,16.18
2022-09-14T00:32:39.371Z,16.23
2022-09-14T00:33:39.417Z,16.23
2022-09-14T00:34:39.340Z,16.23
2022-09-14T00:35:39.340Z,16.18
2022-09-14T00:36:39.326Z,16.17
2022-09-14T00:37:39.305Z,16.14
2022-09-14T00:38:39.287Z,16.14
2022-09-14T00:39:39.271Z,16.14
2022-09-14T00:40:39.283Z,16.14
2022-09-14T00:41:39.251Z,16.16
2022-09-14T00:42:39.238Z,16.17
2022-09-14T00:43:39.253Z,16.18
2022-09-14T00:44:39.210Z,16.18
2022-09-14T00:45:39.247Z,16.18
2022-09-14T00:46:39.181Z,16.18
2022-09-14T00:47:39.164Z,16.22
2022-09-14T00:48:39.149Z,16.22
2022-09-14T00:49:39.149Z,16.22
2022-09-14T00:50:39.136Z,16.23
2022-09-14T00:51:39.110Z,16.25
2022-09-14T00:52:39.102Z,16.27
2022-09-14T00:53:39.090Z,16.29
2022-09-14T00:54:39.090Z,16.30
2022-09-14T00:55:39.064Z,16.32
2022-09-14T00:56:39.049Z,16.32
2022-09-14T00:57:39.032Z,16.32
2022-09-14T00:58:39.040Z,16.30
2022-09-14T00:59:39.020Z,16.30
2022-09-14T01:00:39.060Z,16.32
2022-09-14T01:01:39.040Z,16.32
2022-09-14T01:02:39.061Z,16.32
2022-09-14T01:03:38.949Z,16.33
2022-09-14T01:04:38.957Z,16.34
2022-09-14T01:05:38.925Z,16.34
2022-09-14T01:06:38.916Z,16.36
2022-09-14T01:07:38.906Z,16.36
2022-09-14T01:08:38.936Z,16.37
2022-09-14T01:09:38.887Z,16.37
2022-09-14T01:10:38.868Z,16.37
2022-09-14T01:11:38.852Z,16.40
2022-09-14T01:12:38.845Z,16.40
2022-09-14T01:13:38.823Z,16.37
2022-09-14T01:14:38.830Z,16.37
2022-09-14T01:15:38.789Z,16.37
2022-09-14T01:16:38.855Z,16.36
2022-09-14T01:17:38.771Z,16.36
2022-09-14T01:18:38.778Z,16.34
2022-09-14T01:19:38.760Z,16.34
2022-09-14T01:20:38.737Z,16.36
2022-09-14T01:21:38.709Z,16.36
2022-09-14T01:22:38.707Z,16.36
2022-09-14T01:23:38.772Z,16.37
2022-09-14T01:24:38.688Z,16.37
2022-09-14T01:25:38.658Z,16.37
2022-09-14T01:26:38.653Z,16.40
2022-09-14T01:27:38.640Z,16.40
2022-09-14T01:28:38.625Z,16.40
2022-09-14T01:29:38.620Z,16.40
2022-09-14T01:30:38.599Z,16.40
2022-09-14T01:31:38.667Z,16.37
2022-09-14T01:32:38.568Z,16.37
2022-09-14T01:33:38.550Z,16.40
2022-09-14T01:34:38.558Z,16.40
2022-09-14T01:35:38.518Z,16.40
2022-09-14T01:36:38.519Z,16.40
2022-09-14T01:37:38.505Z,16.40
2022-09-14T01:38:38.489Z,16.41
2022-09-14T01:39:38.500Z,16.41
2022-09-14T01:40:38.460Z,16.41
2022-09-14T01:41:38.455Z,16.41
2022-09-14T01:42:38.440Z,16.42
2022-09-14T01:43:38.419Z,16.42
2022-09-14T01:44:38.421Z,16.42
2022-09-14T01:45:38.525Z,16.42
2022-09-14T01:46:38.382Z,16.42
2022-09-14T01:47:38.359Z,16.42
2022-09-14T01:48:38.365Z,16.42
2022-09-14T01:49:38.368Z,16.42
2022-09-14T01:50:38.331Z,16.45
2022-09-14T01:51:38.312Z,16.44
2022-09-14T01:52:38.307Z,16.42
2022-09-14T01:53:38.291Z,16.44
2022-09-14T01:54:38.288Z,16.45
2022-09-14T01:55:38.263Z,16.47
2022-09-14T01:56:38.249Z,16.47
2022-09-14T01:57:38.231Z,16.47
2022-09-14T01:58:38.227Z,16.45
2022-09-14T01:59:38.221Z,16.47
2022-09-14T02:00:38.263Z,16.47
2022-09-14T02:01:38.276Z,16.48
2022-09-14T02:02:38.206Z,16.48
2022-09-14T02:03:38.160Z,16.48
2022-09-14T02:04:38.158Z,16.48
2022-09-14T02:05:38.128Z,16.48
2022-09-14T02:06:38.117Z,16.48
2022-09-14T02:07:38.098Z,16.48
2022-09-14T02:08:38.090Z,16.48
2022-09-14T02:09:38.086Z,16.50
2022-09-14T02:10:38.070Z,16.50
2022-09-14T02:11:38.043Z,16.50
2022-09-14T02:12:38.036Z,16.51
2022-09-14T02:13:38.021Z,16.51
2022-09-14T02:14:38.023Z,16.52
2022-09-14T02:15:37.988Z,16.54
2022-09-14T02:16:38.049Z,16.57
2022-09-14T02:17:37.967Z,16.60
2022-09-14T02:18:37.957Z,16.62
2022-09-14T02:19:37.951Z,16.60
2022-09-14T02:20:37.927Z,16.59
2022-09-14T02:21:37.908Z,16.59
2022-09-14T02:22:37.907Z,16.57
2022-09-14T02:23:37.879Z,16.55
2022-09-14T02:24:37.890Z,16.57
2022-09-14T02:25:37.859Z,16.57
2022-09-14T02:26:37.842Z,16.55
2022-09-14T02:27:37.827Z,16.57
2022-09-14T02:28:37.820Z,16.55
2022-09-14T02:29:37.819Z,16.55
2022-09-14T02:30:37.798Z,16.54
2022-09-14T02:31:37.848Z,16.52
2022-09-14T02:32:37.766Z,16.54
2022-09-14T02:33:37.748Z,16.54
2022-09-14T02:34:37.751Z,16.54
2022-09-14T02:35:37.720Z,16.55
2022-09-14T02:36:37.713Z,16.55
2022-09-14T02:37:37.702Z,16.55
2022-09-14T02:38:37.690Z,16.59
2022-09-14T02:39:37.680Z,16.62
2022-09-14T02:40:37.662Z,16.65
2022-09-14T02:41:37.641Z,16.63
2022-09-14T02:42:37.639Z,16.62
2022-09-14T02:43:37.616Z,16.65
2022-09-14T02:44:37.618Z,16.63
2022-09-14T02:45:37.589Z,16.62
2022-09-14T02:46:37.638Z,16.59
2022-09-14T02:47:37.573Z,16.57
2022-09-14T02:48:37.571Z,16.57
2022-09-14T02:49:37.551Z,16.57
2022-09-14T02:50:37.531Z,16.57
2022-09-14T02:51:37.514Z,16.57
2022-09-14T02:52:37.501Z,16.57
2022-09-14T02:53:37.505Z,16.57
2022-09-14T02:54:37.475Z,16.57
2022-09-14T02:55:37.462Z,16.57
2022-09-14T02:56:37.444Z,16.57
2022-09-14T02:57:37.433Z,16.57
2022-09-14T02:58:37.453Z,16.60
2022-09-14T02:59:37.412Z,16.59
2022-09-14T03:00:37.462Z,16.60
2022-09-14T03:01:37.417Z,16.60
2022-09-14T03:02:37.381Z,16.62
2022-09-14T03:03:37.362Z,16.62
2022-09-14T03:04:37.342Z,16.62
2022-09-14T03:05:37.328Z,16.62
2022-09-14T03:06:37.320Z,16.62
2022-09-14T03:07:37.291Z,16.62
2022-09-14T03:08:37.316Z,16.63
2022-09-14T03:09:37.273Z,16.63
2022-09-14T03:10:37.266Z,16.65
2022-09-14T03:11:37.241Z,16.63
2022-09-14T03:12:37.234Z,16.65
2022-09-14T03:13:37.230Z,16.65
2022-09-14T03:14:37.212Z,16.66
2022-09-14T03:15:37.192Z,16.66
2022-09-14T03:16:37.237Z,16.67
2022-09-14T03:17:37.171Z,16.70
2022-09-14T03:18:37.163Z,16.73
2022-09-14T03:19:37.139Z,16.75
2022-09-14T03:20:37.122Z,16.73
2022-09-14T03:21:37.114Z,16.70
2022-09-14T03:22:37.101Z,16.67
2022-09-14T03:23:37.106Z,16.67
2022-09-14T03:24:37.071Z,16.69
2022-09-14T03:25:37.061Z,16.69
2022-09-14T03:26:37.041Z,16.69
2022-09-14T03:27:37.033Z,16.70
2022-09-14T03:28:37.031Z,16.70
2022-09-14T03:29:37.011Z,16.70
2022-09-14T03:30:36.993Z,16.72
2022-09-14T03:31:37.077Z,16.73
2022-09-14T03:32:36.983Z,16.72
2022-09-14T03:33:36.950Z,16.70
2022-09-14T03:34:36.943Z,16.75
2022-09-14T03:35:36.931Z,16.75
2022-09-14T03:36:36.909Z,16.75
2022-09-14T03:37:36.910Z,16.77
2022-09-14T03:38:36.890Z,16.77
2022-09-14T03:39:36.880Z,16.77
2022-09-14T03:40:36.934Z,16.78
2022-09-14T03:41:36.854Z,16.80
2022-09-14T03:42:36.842Z,16.81
2022-09-14T03:43:36.823Z,16.82
2022-09-14T03:44:36.804Z,16.82
2022-09-14T03:45:36.799Z,16.82
2022-09-14T03:46:36.861Z,16.81
2022-09-14T03:47:36.781Z,16.81
2022-09-14T03:48:36.761Z,16.81
2022-09-14T03:49:36.741Z,16.82
2022-09-14T03:50:36.822Z,16.81
2022-09-14T03:51:36.715Z,16.81
2022-09-14T03:52:36.709Z,16.80
2022-09-14T03:53:36.696Z,16.80
2022-09-14T03:54:36.670Z,16.80
2022-09-14T03:55:36.705Z,16.81
2022-09-14T03:56:36.655Z,16.81
2022-09-14T03:57:36.640Z,16.82
2022-09-14T03:58:36.623Z,16.84
2022-09-14T03:59:39.462Z,16.87
2022-09-14T04:00:37.591Z,16.85
2022-09-14T04:01:36.616Z,16.87
2022-09-14T04:02:36.646Z,16.87
2022-09-14T04:03:36.562Z,16.88
2022-09-14T04:04:36.539Z,16.90
2022-09-14T04:05:36.531Z,16.88
2022-09-14T04:06:36.513Z,16.87
2022-09-14T04:07:36.528Z,16.88
2022-09-14T04:08:36.483Z,16.87
2022-09-14T04:09:36.481Z,16.87
2022-09-14T04:10:36.461Z,16.87
2022-09-14T04:11:36.458Z,16.85
2022-09-14T04:12:36.450Z,16.84
2022-09-14T04:13:36.432Z,16.84
2022-09-14T04:14:36.400Z,16.84
2022-09-14T04:15:36.408Z,16.85
2022-09-14T04:16:36.423Z,16.85
2022-09-14T04:17:36.389Z,16.85
2022-09-14T04:18:36.377Z,16.84
2022-09-14T04:19:36.351Z,16.85
2022-09-14T04:20:36.328Z,16.88
2022-09-14T04:21:36.309Z,16.87
2022-09-14T04:22:36.309Z,16.87
2022-09-14T04:23:56.694Z,16.87
2022-09-14T04:24:37.280Z,16.87
2022-09-14T04:25:36.279Z,16.82
2022-09-14T04:26:36.253Z,16.82
2022-09-14T04:27:36.261Z,16.81
2022-09-14T04:28:36.222Z,16.81
2022-09-14T04:29:36.237Z,16.80
2022-09-14T04:30:36.198Z,16.80
2022-09-14T04:31:36.248Z,16.80
2022-09-14T04:32:36.180Z,16.81
2022-09-14T04:33:36.173Z,16.80
2022-09-14T04:34:36.151Z,16.80
2022-09-14T04:35:36.128Z,16.78
2022-09-14T04:36:36.119Z,16.80
2022-09-14T04:37:36.122Z,16.78
2022-09-14T04:38:36.090Z,16.78
2022-09-14T04:39:36.082Z,16.80
2022-09-14T04:40:36.070Z,16.78
2022-09-14T04:41:36.062Z,16.77
2022-09-14T04:42:36.049Z,16.78
2022-09-14T04:43:36.024Z,16.78
2022-09-14T04:44:36.132Z,16.78
2022-09-14T04:45:36.000Z,16.78
2022-09-14T04:46:36.029Z,16.78
2022-09-14T04:47:35.990Z,16.77
2022-09-14T04:48:35.960Z,16.75
2022-09-14T04:49:35.949Z,16.73
2022-09-14T04:50:35.932Z,16.70
2022-09-14T04:51:35.924Z,16.70
2022-09-14T04:52:35.923Z,16.70
2022-09-14T04:53:35.901Z,16.69
2022-09-14T04:54:35.880Z,16.69
2022-09-14T04:55:35.920Z,16.69
2022-09-14T04:56:35.851Z,16.67
2022-09-14T04:57:35.852Z,16.67
2022-09-14T04:58:35.831Z,16.65
2022-09-14T04:59:35.831Z,16.62
2022-09-14T05:00:35.802Z,16.62
2022-09-14T05:01:35.827Z,16.62
2022-09-14T05:02:35.878Z,16.59
2022-09-14T05:03:35.789Z,16.60
2022-09-14T05:04:35.764Z,16.62
2022-09-14T05:05:35.748Z,16.60
2022-09-14T05:06:35.729Z,16.60
2022-09-14T05:07:35.730Z,16.63
2022-09-14T05:08:35.710Z,16.62
2022-09-14T05:09:35.680Z,16.65
2022-09-14T05:10:35.669Z,16.65
2022-09-14T05:11:35.657Z,16.62
2022-09-14T05:12:35.649Z,16.62
2022-09-14T05:13:35.647Z,16.62
2022-09-14T05:14:35.617Z,16.60
2022-09-14T05:15:35.746Z,16.60
2022-09-14T05:16:35.597Z,16.59
2022-09-14T05:17:35.603Z,16.59
2022-09-14T05:18:35.578Z,16.59
2022-09-14T05:19:35.582Z,16.57
2022-09-14T05:20:35.529Z,16.57
2022-09-14T05:21:35.527Z,16.54
2022-09-14T05:22:35.528Z,16.55
2022-09-14T05:23:35.504Z,16.57
2022-09-14T05:24:35.499Z,16.57
2022-09-14T05:25:35.496Z,16.57
2022-09-14T05:26:35.449Z,16.57
2022-09-14T05:27:35.456Z,16.60
2022-09-14T05:28:35.426Z,16.60
2022-09-14T05:29:35.419Z,16.60
2022-09-14T05:30:35.399Z,16.63
2022-09-14T05:31:35.447Z,16.60
2022-09-14T05:32:35.379Z,16.60
2022-09-14T05:33:35.380Z,16.60
2022-09-14T05:34:35.349Z,16.62
2022-09-14T05:35:35.341Z,16.57
2022-09-14T05:36:35.320Z,16.55
2022-09-14T05:37:35.328Z,16.55
2022-09-14T05:38:35.295Z,16.57
2022-09-14T05:39:35.294Z,16.54
2022-09-14T05:40:35.270Z,16.55
2022-09-14T05:41:35.262Z,16.55
2022-09-14T05:42:35.247Z,16.55
2022-09-14T05:43:35.234Z,16.55
2022-09-14T05:44:35.208Z,16.55
2022-09-14T05:45:35.210Z,16.52
2022-09-14T05:46:35.217Z,16.52
2022-09-14T05:47:39.003Z,16.50
2022-09-14T05:48:35.158Z,16.50
2022-09-14T05:49:35.149Z,16.47
2022-09-14T05:50:35.131Z,16.48
2022-09-14T05:51:35.119Z,16.50
2022-09-14T05:52:35.111Z,16.48
2022-09-14T05:53:35.097Z,16.48
2022-09-14T05:54:35.078Z,16.48
2022-09-14T05:55:35.069Z,16.50
2022-09-14T05:56:35.049Z,16.50
2022-09-14T05:57:35.060Z,16.50
2022-09-14T05:58:35.028Z,16.50
2022-09-14T05:59:35.019Z,16.50
2022-09-14T06:00:35.002Z,16.48
2022-09-14T06:01:35.059Z,16.48
2022-09-14T06:02:34.974Z,16.47
2022-09-14T06:03:34.981Z,16.47
2022-09-14T06:04:34.939Z,16.47
2022-09-14T06:05:35.047Z,16.48
2022-09-14T06:06:34.931Z,16.51
2022-09-14T06:07:34.909Z,16.50
2022-09-14T06:08:34.897Z,16.50
2022-09-14T06:09:34.893Z,16.51
2022-09-14T06:10:34.869Z,16.51
2022-09-14T06:11:34.879Z,16.51
2022-09-14T06:12:34.836Z,16.51
2022-09-14T06:13:34.839Z,16.50
2022-09-14T06:14:34.812Z,16.48
2022-09-14T06:15:34.805Z,16.47
2022-09-14T06:16:34.929Z,16.47
2022-09-14T06:17:34.792Z,16.45
2022-09-14T06:18:34.759Z,16.47
2022-09-14T06:19:34.764Z,16.47
2022-09-14T06:20:34.744Z,16.44
2022-09-14T06:21:34.730Z,16.44
2022-09-14T06:22:34.713Z,16.44
2022-09-14T06:23:34.690Z,16.42
2022-09-14T06:24:34.681Z,16.45
2022-09-14T06:25:34.671Z,16.47
2022-09-14T06:26:34.662Z,16.45
2022-09-14T06:27:34.650Z,16.44
2022-09-14T06:28:34.756Z,16.42
2022-09-14T06:29:34.620Z,16.40
2022-09-14T06:30:34.615Z,16.41
2022-09-14T06:31:34.603Z,16.40
2022-09-14T06:32:34.569Z,16.37
2022-09-14T06:33:34.566Z,16.36
2022-09-14T06:34:34.549Z,16.37
2022-09-14T06:35:34.541Z,16.37
2022-09-14T06:36:34.548Z,16.37
2022-09-14T06:37:34.509Z,16.37
2022-09-14T06:38:34.492Z,16.37
2022-09-14T06:39:34.527Z,16.40
2022-09-14T06:40:34.579Z,16.40
2022-09-14T06:41:34.468Z,16.37
2022-09-14T06:42:34.441Z,16.37
2022-09-14T06:43:34.430Z,16.40
2022-09-14T06:44:34.414Z,16.36
2022-09-14T06:45:34.412Z,16.40
2022-09-14T06:46:34.401Z,16.40
2022-09-14T06:47:34.408Z,16.40
2022-09-14T06:48:34.373Z,16.42
2022-09-14T06:49:34.354Z,16.42
2022-09-14T06:50:34.343Z,16.44
2022-09-14T06:51:34.342Z,16.44
2022-09-14T06:52:34.313Z,16.44
2022-09-14T06:53:34.298Z,16.44
2022-09-14T06:54:34.298Z,16.47
2022-09-14T06:55:34.277Z,16.45
2022-09-14T06:56:34.268Z,16.45
2022-09-14T06:57:34.253Z,16.45
2022-09-14T06:58:34.231Z,16.48
2022-09-14T06:59:34.219Z,16.47
2022-09-14T07:00:34.202Z,16.48
2022-09-14T07:01:34.208Z,16.48
2022-09-14T07:02:34.214Z,16.50
2022-09-14T07:03:34.165Z,16.48
2022-09-14T07:04:34.149Z,16.51
2022-09-14T07:05:34.147Z,16.52
2022-09-14T07:06:34.142Z,16.52
2022-09-14T07:07:34.111Z,16.55
2022-09-14T07:08:34.089Z,16.55
2022-09-14T07:09:34.096Z,16.55
2022-09-14T07:10:34.073Z,16.55
2022-09-14T07:11:34.081Z,16.55
2022-09-14T07:12:34.044Z,16.57
2022-09-14T07:13:34.031Z,16.57
2022-09-14T07:14:34.009Z,16.57
2022-09-14T07:15:34.012Z,16.57
2022-09-14T07:16:34.005Z,16.60
2022-09-14T07:17:33.983Z,16.62
2022-09-14T07:18:33.960Z,16.63
2022-09-14T07:19:33.962Z,16.67
2022-09-14T07:20:33.944Z,16.66
2022-09-14T07:21:33.946Z,16.67
2022-09-14T07:22:33.918Z,16.69
2022-09-14T07:23:33.938Z,16.69
2022-09-14T07:24:33.890Z,16.70
2022-09-14T07:25:33.880Z,16.73
2022-09-14T07:26:33.877Z,16.77
2022-09-14T07:27:33.851Z,16.78
2022-09-14T07:28:33.829Z,16.78
2022-09-14T07:29:33.821Z,16.78
2022-09-14T07:30:33.835Z,16.81
2022-09-14T07:31:33.800Z,16.84
2022-09-14T07:32:33.780Z,16.82
2022-09-14T07:33:33.769Z,16.85
2022-09-14T07:34:33.751Z,16.85
2022-09-14T07:35:33.750Z,16.85
2022-09-14T07:36:34.980Z,16.88
2022-09-14T07:37:33.709Z,16.91
2022-09-14T07:38:51.120Z,16.96
2022-09-14T07:39:34.719Z,16.95
2022-09-14T07:40:33.745Z,16.96
2022-09-14T07:41:33.677Z,16.96
2022-09-14T07:42:33.654Z,16.98
2022-09-14T07:43:33.630Z,17.00
2022-09-14T07:44:33.622Z,17.00
2022-09-14T07:45:33.641Z,17.00
2022-09-14T07:46:33.610Z,17.00
2022-09-14T07:47:33.579Z,17.00
2022-09-14T07:48:33.565Z,17.02
2022-09-14T07:49:33.550Z,17.02
2022-09-14T07:50:33.540Z,17.03
2022-09-14T07:51:33.543Z,17.03
2022-09-14T07:52:38.006Z,17.05
2022-09-14T07:53:34.512Z,17.05
2022-09-14T07:54:33.494Z,17.06
2022-09-14T07:55:33.470Z,17.06
2022-09-14T07:56:33.491Z,17.07
2022-09-14T07:57:54.732Z,17.09
2022-09-14T07:58:34.428Z,17.10
2022-09-14T07:59:36.476Z,17.12
2022-09-14T08:00:33.411Z,17.14
2022-09-14T08:01:33.471Z,17.14
2022-09-14T08:02:33.432Z,17.14
2022-09-14T08:03:33.371Z,17.14
2022-09-14T08:04:33.353Z,17.15
2022-09-14T08:05:33.330Z,17.15
2022-09-14T08:06:33.332Z,17.17
2022-09-14T08:07:33.322Z,17.20
2022-09-14T08:08:33.306Z,17.22
2022-09-14T08:09:33.286Z,17.22
2022-09-14T08:10:33.278Z,17.24
2022-09-14T08:11:33.276Z,17.24
2022-09-14T08:12:33.252Z,17.24
2022-09-14T08:13:33.242Z,17.24
2022-09-14T08:14:33.223Z,17.22
2022-09-14T08:15:33.204Z,17.24
2022-09-14T08:16:33.266Z,17.25
2022-09-14T08:17:33.180Z,17.25
2022-09-14T08:18:33.173Z,17.25
2022-09-14T08:19:33.151Z,17.24
2022-09-14T08:20:33.143Z,17.24
2022-09-14T08:21:33.141Z,17.24
2022-09-14T08:22:33.115Z,17.24
2022-09-14T08:23:33.102Z,17.22
2022-09-14T08:24:33.091Z,17.22
2022-09-14T08:25:33.070Z,17.24
2022-09-14T08:26:33.070Z,17.22
2022-09-14T08:27:33.044Z,17.24
2022-09-14T08:28:33.039Z,17.25
2022-09-14T08:29:33.024Z,17.24
2022-09-14T08:30:33.008Z,17.25
2022-09-14T08:31:33.042Z,17.27
2022-09-14T08:32:32.984Z,17.28
2022-09-14T08:33:32.970Z,17.28
2022-09-14T08:34:32.960Z,17.27
2022-09-14T08:35:56.439Z,17.28
2022-09-14T08:36:33.941Z,17.28
2022-09-14T08:37:32.912Z,17.28
2022-09-14T08:38:32.904Z,17.30
2022-09-14T08:39:32.895Z,17.28
2022-09-14T08:40:32.944Z,17.28
2022-09-14T08:41:32.867Z,17.30
2022-09-14T08:42:32.856Z,17.33
2022-09-14T08:43:32.834Z,17.38
2022-09-14T08:44:32.820Z,17.40
2022-09-14T08:45:32.848Z,17.43
2022-09-14T08:46:32.810Z,17.46
2022-09-14T08:47:32.782Z,17.51
2022-09-14T08:48:32.771Z,17.54
2022-09-14T08:49:32.757Z,17.57
2022-09-14T08:50:36.916Z,17.57
2022-09-14T08:51:33.757Z,17.60
2022-09-14T08:52:32.719Z,17.62
2022-09-14T08:53:32.702Z,17.65
2022-09-14T08:54:32.690Z,17.65
2022-09-14T08:55:32.671Z,17.66
2022-09-14T08:56:32.694Z,17.66
2022-09-14T08:57:32.640Z,17.66
2022-09-14T08:58:32.640Z,17.66
2022-09-14T08:59:32.612Z,17.68
2022-09-14T09:00:32.660Z,17.70
2022-09-14T09:01:32.599Z,17.71
2022-09-14T09:02:32.580Z,17.73
2022-09-14T09:03:32.650Z,17.76
2022-09-14T09:04:32.551Z,17.74
2022-09-14T09:05:32.546Z,17.77
2022-09-14T09:06:32.536Z,17.77
2022-09-14T09:07:32.510Z,17.77
2022-09-14T09:08:32.502Z,17.77
2022-09-14T09:09:32.495Z,17.77
2022-09-14T09:10:32.482Z,17.80
2022-09-14T09:11:32.454Z,17.81
2022-09-14T09:12:32.451Z,17.83
2022-09-14T09:13:32.419Z,17.86
2022-09-14T09:14:32.426Z,17.89
2022-09-14T09:15:32.422Z,17.91
2022-09-14T09:16:32.457Z,17.95
2022-09-14T09:17:32.374Z,17.99
2022-09-14T09:18:32.369Z,18.02
2022-09-14T09:19:32.348Z,18.05
2022-09-14T09:20:32.350Z,18.10
2022-09-14T09:21:32.312Z,18.14
2022-09-14T09:22:32.302Z,18.19
2022-09-14T09:23:32.302Z,18.21
2022-09-14T09:24:36.375Z,18.25
2022-09-14T09:25:32.281Z,18.29
2022-09-14T09:26:32.256Z,18.31
2022-09-14T09:27:32.248Z,18.35
2022-09-14T09:28:32.231Z,18.39
2022-09-14T09:29:32.211Z,18.41
2022-09-14T09:30:32.218Z,18.42
2022-09-14T09:31:32.234Z,18.42
2022-09-14T09:32:32.173Z,18.44
2022-09-14T09:33:32.158Z,18.46
2022-09-14T09:34:32.162Z,18.46
2022-09-14T09:35:32.162Z,18.49
2022-09-14T09:36:32.123Z,18.46
2022-09-14T09:37:32.111Z,18.47
2022-09-14T09:38:32.094Z,18.46
2022-09-14T09:39:32.093Z,18.44
2022-09-14T09:40:32.141Z,18.44
2022-09-14T09:41:32.041Z,18.44
2022-09-14T09:42:32.032Z,18.44
2022-09-14T09:43:48.973Z,18.44
2022-09-14T09:44:33.011Z,18.44
2022-09-14T09:45:32.010Z,18.46
2022-09-14T09:46:32.021Z,18.46
2022-09-14T09:47:31.969Z,18.46
2022-09-14T09:48:31.961Z,18.46
2022-09-14T09:49:31.956Z,18.46
2022-09-14T09:50:31.964Z,18.47
2022-09-14T09:51:31.935Z,18.47
2022-09-14T09:52:33.161Z,18.46
2022-09-14T09:53:31.882Z,18.46
2022-09-14T09:54:31.870Z,18.46
2022-09-14T09:55:31.870Z,18.44
2022-09-14T09:56:31.859Z,18.44
2022-09-14T09:57:31.831Z,18.46
2022-09-14T09:58:31.821Z,18.47
2022-09-14T09:59:31.805Z,18.46
2022-09-14T10:00:31.811Z,18.49
2022-09-14T10:01:31.938Z,18.49
2022-09-14T10:02:31.850Z,18.47
2022-09-14T10:03:31.749Z,18.47
2022-09-14T10:04:31.743Z,18.49
2022-09-14T10:05:31.732Z,18.49
2022-09-14T10:06:31.713Z,18.47
2022-09-14T10:07:31.691Z,18.49
2022-09-14T10:08:31.683Z,18.49
2022-09-14T10:09:31.672Z,18.47
2022-09-14T10:10:31.672Z,18.46
2022-09-14T10:11:31.641Z,18.46
2022-09-14T10:12:31.631Z,18.44
2022-09-14T10:13:35.357Z,18.46
2022-09-14T10:14:32.625Z,18.47
2022-09-14T10:15:31.598Z,18.50
2022-09-14T10:16:31.628Z,18.53
2022-09-14T10:17:31.566Z,18.53
2022-09-14T10:18:31.542Z,18.54
2022-09-14T10:19:31.549Z,18.56
2022-09-14T10:20:31.526Z,18.57
2022-09-14T10:21:31.510Z,18.59
2022-09-14T10:22:31.495Z,18.60
2022-09-14T10:23:31.488Z,18.60
2022-09-14T10:24:31.488Z,18.64
2022-09-14T10:25:31.453Z,18.65
2022-09-14T10:26:31.443Z,18.68
2022-09-14T10:27:34.395Z,18.69
2022-09-14T10:28:32.416Z,18.71
2022-09-14T10:29:31.409Z,18.75
2022-09-14T10:30:31.381Z,18.78
2022-09-14T10:31:31.459Z,18.82
2022-09-14T10:32:31.362Z,18.86
2022-09-14T10:33:31.411Z,18.87
2022-09-14T10:34:31.351Z,18.90
2022-09-14T10:35:31.312Z,18.94
2022-09-14T10:36:31.316Z,18.96
2022-09-14T10:37:31.289Z,18.96
2022-09-14T10:38:31.279Z,18.94
2022-09-14T10:39:31.272Z,18.94
2022-09-14T10:40:31.309Z,18.94
2022-09-14T10:41:31.231Z,18.99
2022-09-14T10:42:31.221Z,19.01
2022-09-14T10:43:31.211Z,18.99
2022-09-14T10:44:31.211Z,18.96
2022-09-14T10:45:31.181Z,18.93
2022-09-14T10:46:31.265Z,18.96
2022-09-14T10:47:31.162Z,18.96
2022-09-14T10:48:31.142Z,18.94
2022-09-14T10:49:31.144Z,18.97
2022-09-14T10:50:31.112Z,18.97
2022-09-14T10:51:31.102Z,18.99
2022-09-14T10:52:31.090Z,19.01
2022-09-14T10:53:31.194Z,19.02
2022-09-14T10:54:31.089Z,19.06
2022-09-14T10:55:31.054Z,19.09
2022-09-14T10:56:31.041Z,19.09
2022-09-14T10:57:31.030Z,19.09
2022-09-14T10:58:31.013Z,19.09
2022-09-14T10:59:31.014Z,19.09
2022-09-14T11:00:30.990Z,19.12
2022-09-14T11:01:30.994Z,19.07
2022-09-14T11:02:31.066Z,19.06
2022-09-14T11:03:30.942Z,19.05
2022-09-14T11:04:30.943Z,19.01
2022-09-14T11:05:30.918Z,18.96
2022-09-14T11:06:30.931Z,18.90
2022-09-14T11:07:30.893Z,18.84
2022-09-14T11:08:30.882Z,18.82
2022-09-14T11:09:30.872Z,18.72
2022-09-14T11:10:30.864Z,18.68
2022-09-14T11:11:30.838Z,18.65
2022-09-14T11:12:30.830Z,18.65
2022-09-14T11:13:30.800Z,18.64
2022-09-14T11:14:30.811Z,18.65
2022-09-14T11:15:30.853Z,18.62
2022-09-14T11:16:30.837Z,18.62
2022-09-14T11:17:30.751Z,18.60
2022-09-14T11:18:30.756Z,18.59
2022-09-14T11:19:30.737Z,18.60
2022-09-14T11:20:30.711Z,18.60
2022-09-14T11:21:30.700Z,18.59
2022-09-14T11:22:30.705Z,18.59
2022-09-14T11:23:30.671Z,18.57
2022-09-14T11:24:30.673Z,18.56
2022-09-14T11:25:30.641Z,18.56
2022-09-14T11:26:30.647Z,18.57
2022-09-14T11:27:30.618Z,18.57
2022-09-14T11:28:30.613Z,18.57
2022-09-14T11:29:30.603Z,18.54
2022-09-14T11:30:30.580Z,18.51
2022-09-14T11:31:30.607Z,18.49
2022-09-14T11:32:30.552Z,18.46
2022-09-14T11:33:31.514Z,18.46
2022-09-14T11:34:30.539Z,18.46
2022-09-14T11:35:30.510Z,18.44
2022-09-14T11:36:30.505Z,18.42
2022-09-14T11:37:30.486Z,18.42
2022-09-14T11:38:30.482Z,18.42
2022-09-14T11:39:30.472Z,18.44
2022-09-14T11:40:30.549Z,18.41
2022-09-14T11:41:30.441Z,18.39
2022-09-14T11:42:30.429Z,18.41
2022-09-14T11:43:30.413Z,18.39
2022-09-14T11:44:30.401Z,18.39
2022-09-14T11:45:30.373Z,18.39
2022-09-14T11:46:30.422Z,18.39
2022-09-14T11:47:30.350Z,18.39
2022-09-14T11:48:45.660Z,18.41
2022-09-14T11:49:31.340Z,18.42
2022-09-14T11:50:30.331Z,18.42
2022-09-14T11:51:30.303Z,18.42
2022-09-14T11:52:30.327Z,18.46
2022-09-14T11:53:30.271Z,18.47
2022-09-14T11:54:30.273Z,18.49
2022-09-14T11:55:30.248Z,18.51
2022-09-14T11:56:30.224Z,18.53
2022-09-14T11:57:30.223Z,18.57
2022-09-14T11:58:30.222Z,18.57
2022-09-14T11:59:30.276Z,18.59
2022-09-14T12:00:30.171Z,18.62
2022-09-14T12:01:30.173Z,18.65
2022-09-14T12:02:30.225Z,18.69
2022-09-14T12:03:30.183Z,18.72
2022-09-14T12:04:30.132Z,18.74
2022-09-14T12:05:30.115Z,18.76
2022-09-14T12:06:30.114Z,18.74
2022-09-14T12:07:30.081Z,18.72
2022-09-14T12:08:30.079Z,18.71
2022-09-14T12:09:30.051Z,18.65
2022-09-14T12:10:30.036Z,18.64
2022-09-14T12:11:30.037Z,18.59
2022-09-14T12:12:30.013Z,18.57
2022-09-14T12:13:30.013Z,18.57
2022-09-14T12:14:29.981Z,18.56
2022-09-14T12:15:30.013Z,18.53
2022-09-14T12:16:34.364Z,18.51
2022-09-14T12:17:45.179Z,18.53
2022-09-14T12:18:30.940Z,18.51
2022-09-14T12:19:29.926Z,18.53
2022-09-14T12:20:29.903Z,18.53
2022-09-14T12:21:29.890Z,18.54
2022-09-14T12:22:29.883Z,18.53
2022-09-14T12:23:29.893Z,18.54
2022-09-14T12:24:29.853Z,18.56
2022-09-14T12:25:29.841Z,18.54
2022-09-14T12:26:29.825Z,18.54
2022-09-14T12:27:29.815Z,18.53
2022-09-14T12:28:29.806Z,18.50
2022-09-14T12:29:29.790Z,18.51
2022-09-14T12:30:29.763Z,18.50
2022-09-14T12:31:29.806Z,18.51
2022-09-14T12:32:29.759Z,18.51
2022-09-14T12:33:29.751Z,18.51
2022-09-14T12:34:29.712Z,18.51
2022-09-14T12:35:29.703Z,18.51
2022-09-14T12:36:29.681Z,18.51
2022-09-14T12:37:29.677Z,18.49
2022-09-14T12:38:29.688Z,18.49
2022-09-14T12:39:29.651Z,18.46
2022-09-14T12:40:29.707Z,18.42
2022-09-14T12:41:29.633Z,18.41
2022-09-14T12:42:29.600Z,18.41
2022-09-14T12:43:29.614Z,18.42
2022-09-14T12:44:29.585Z,18.41
2022-09-14T12:45:29.562Z,18.42
2022-09-14T12:46:29.596Z,18.42
2022-09-14T12:47:29.544Z,18.42
2022-09-14T12:48:29.531Z,18.46
2022-09-14T12:49:29.512Z,18.47
2022-09-14T12:50:29.493Z,18.47
2022-09-14T12:51:29.487Z,18.50
2022-09-14T12:52:29.471Z,18.49